首页
METAR-TAF:

METAR-TAF

机场 :

兰州中川国际机场

兰州, 中华人民共和国

纬度: 36-02N, 经度: 103-52E, 海拔: 1518米

当前天气观测

该预报发布于55分钟前的20:00 UTC
风速4节,风向
温度 -13°C
湿度 92%
气压 1022 hPa
能見度: 5000
轻雾

METAR: ZLLL 132000Z 36002MPS 5000 BR NSC M13/M14 Q1022 NOSIG

时间: 04:55 (20:55 UTC)

预报

该预报发布于5小时和46分钟前的15:09 UTC
预报有效从13日的 18点(UTC)到 14日的 18点(UTC)
风速6节,风向北转西北
能見度: 5000
轻雾

TAF: ZLLL 131509Z 1318/1418 33003MPS 5000 BR NSC TX01/1408Z TNM12/23Z

超过4000个机场的气象观测和天气预报(METAR&TAF报告)。

可查询的气象台以黄色和红色小点在地图上表示。

将鼠标移到小点上方,可查看气象台名称。

然后点击查看天气观测和预报。

如需切换地图:点击带黑十字的绿色按钮放大地图;点击带横线的绿色按钮缩小地图;或者点击绿色箭头查看邻近地区的地图。


METAR-TAF: